Time,TemperatureF,DewpointF,PressureIn,WindDirection,WindDirectionDegrees,WindSpeedMPH,WindSpeedGustMPH,Humidity,HourlyPrecipIn,Conditions,Clouds,dailyrainin,SolarRadiationWatts/m^2,SoftwareType,DateUTC
2013-07-08 00:48:00,69.2,44.0,30.01,NE,39,10.0,12.0,40,0.00,,,0.00,0,weatherlink.com 1.10,2013-07-08 06:48:00,
2013-07-08 00:55:00,69.3,44.0,30.01,North,9,12.0,13.0,40,0.00,,,0.00,0,weatherlink.com 1.10,2013-07-08 06:55:00,
2013-07-08 03:02:00,64.2,43.0,30.01,NNE,24,13.0,19.0,47,0.00,,,0.00,0,weatherlink.com 1.10,2013-07-08 09:02:00,
2013-07-08 03:12:00,64.4,44.0,30.00,NNE,30,10.0,15.0,47,0.00,,,0.00,0,weatherlink.com 1.10,2013-07-08 09:12:00,
2013-07-08 05:08:00,60.6,43.0,30.00,NE,53,7.0,8.0,52,0.00,,,0.00,0,weatherlink.com 1.10,2013-07-08 11:08:00,
2013-07-08 05:11:00,60.9,43.0,30.00,NE,49,6.0,9.0,52,0.00,,,0.00,0,weatherlink.com 1.10,2013-07-08 11:11:00,
2013-07-08 05:26:00,61.4,43.0,30.00,ENE,57,10.0,11.0,51,0.00,,,0.00,0,weatherlink.com 1.10,2013-07-08 11:26:00,
2013-07-08 05:41:00,61.3,43.0,30.01,NNE,22,8.0,10.0,52,0.00,,,0.00,0,weatherlink.com 1.10,2013-07-08 11:41:00,
2013-07-08 11:24:00,59.6,54.0,30.14,North,350,5.0,17.0,82,0.00,,,0.02,16,weatherlink.com 1.10,2013-07-08 17:24:00,
2013-07-08 18:25:00,80.2,39.0,30.09,NW,324,18.0,26.0,23,0.00,,,0.04,394,weatherlink.com 1.10,2013-07-09 00:25:00,
2013-07-08 18:55:00,79.1,41.0,30.11,NNW,344,11.0,32.0,26,0.00,,,0.04,322,weatherlink.com 1.10,2013-07-09 00:55:00,
2013-07-08 19:11:00,78.2,41.0,30.11,North,355,11.0,30.0,26,0.00,,,0.04,288,weatherlink.com 1.10,2013-07-09 01:11:00,
2013-07-08 19:48:00,77.2,40.0,30.13,NNW,337,18.0,32.0,26,0.00,,,0.04,223,weatherlink.com 1.10,2013-07-09 01:48:00,
2013-07-08 21:06:00,75.1,42.0,30.17,North,5,11.0,12.0,30,0.00,,,0.04,18,weatherlink.com 1.10,2013-07-09 03:06:00,
2013-07-08 21:35:00,73.6,42.0,30.18,NNE,24,9.0,13.0,32,0.00,,,0.04,0,weatherlink.com 1.10,2013-07-09 03:35:00,
2013-07-08 22:12:00,72.1,42.0,30.20,North,355,5.0,9.0,34,0.00,,,0.04,0,weatherlink.com 1.10,2013-07-09 04:12:00,
2013-07-08 22:26:00,72.0,43.0,30.20,NNW,330,6.0,10.0,35,0.00,,,0.04,0,weatherlink.com 1.10,2013-07-09 04:26:00,
2013-07-08 22:41:00,73.0,42.0,30.21,WNW,301,4.0,13.0,33,0.00,,,0.04,0,weatherlink.com 1.10,2013-07-09 04:41:00,
2013-07-08 22:56:00,72.4,40.0,30.21,NW,324,4.0,11.0,31,0.00,,,0.04,0,weatherlink.com 1.10,2013-07-09 04:56:00,
2013-07-08 23:11:00,68.6,43.0,30.22,NE,34,14.0,15.0,39,0.00,,,0.04,0,weatherlink.com 1.10,2013-07-09 05:11:00,
2013-07-08 23:26:00,69.0,42.0,30.23,North,5,9.0,12.0,38,0.00,,,0.04,0,weatherlink.com 1.10,2013-07-09 05:26:00,
2013-07-08 23:46:00,67.0,42.0,30.24,North,355,13.0,16.0,41,0.00,,,0.04,0,weatherlink.com 1.10,2013-07-09 05:46:00,